Ardonia, NY

11:57 AM EST on February 01, 2015 (GMT -0500)
APRSWXNET Plattekill NY US | Change Station
CLOSE
Current Station
Personal Weather Station
Location: Plattekill, NY
Elevation: 600 ft
Nearby Weather Stations
Active Advisory: Winter Storm Warning

Elev 600 ft 41.61 °N, 74.09 °W | Updated 25 minutes ago

Partly Cloudy
Partly Cloudy
32 °F
Feels Like 32 °F
N
2
Wind Variable Wind from West
Gusts 6.0 mph

Today
High -- | Low -- °F
--% Chance of Precip.
Yesterday
High -- | Low -- °F
Precip. -- in
7:08 AM 5:11 PM
Waxing Gibbous, 95% visible
Pressure 30.18 in
Visibility 10.0 miles
Clouds Clear
Windchill 32 °F
Dew Point 21 °F
Humidity 64%
Rainfall 0.00 in
Snow Depth Not available.
UV 3 out of 12
Pollen .10 out of 12
Air Quality Not available.
Flu Activity Not available.
METAR KPOU 011553Z 20004KT 10SM CLR M01/M08 A3017 RMK AO2 SLP218 T10061083

More Conditions Fewer Conditions

Pressure 30.18 in
Visibility 10.0 miles
Clouds Clear
Windchill 32 °F
Dew Point 21 °F
Humidity 64%
Rainfall 0.00 in
Snow Depth Not available.
UV 3 out of 12
Pollen .10 out of 12
Air Quality Not available.
Flu Activity Not available.
METAR KPOU 011553Z 20004KT 10SM CLR M01/M08 A3017 RMK AO2 SLP218 T10061083

More Conditions Fewer Conditions

10-Day Weather Forecast

Almanac

Astronomy

Feb. 01, 2015 Rise Set
Actual Time
Civil Twilight
Nautical Twilight
Astronomical Twilight
Moon
Length of Visible Light
Length of Day
Tomorrow will be .
, % of the Moon is Illuminated

Today's Extremes

State Highs State Lows

Community

WunderPhotos

Upload Photos

1,792,367 photos uploaded!

WunderBlogs® & News

Nearby

Air Quality

  Air Quality AQ Index Pollutant
Not available.

Snow Depth

Station Depth Elevation

Earthquake Activity

City Distance Mag. Time & Date
Minimum magnitude displayed is 2.5.

Coastal Water Temperatures

Place Temperature

Nearby Weather Stations